createdAt,value
2019-04-11T00:04:26.163Z,11.60
2019-04-11T00:09:28.377Z,13.35
2019-04-11T00:14:30.363Z,13.30
2019-04-11T00:19:33.570Z,9.67
2019-04-11T00:24:36.764Z,9.13
2019-04-11T00:29:39.066Z,11.93
2019-04-11T00:34:41.018Z,7.80
2019-04-11T00:39:43.721Z,8.33
2019-04-11T00:44:47.982Z,13.60
2019-04-11T00:49:50.447Z,12.07
2019-04-11T00:54:53.218Z,9.63
2019-04-11T00:59:56.492Z,10.20
2019-04-11T01:04:59.248Z,9.53
2019-04-11T01:10:01.489Z,9.33
2019-04-11T01:15:07.510Z,10.00
2019-04-11T01:20:09.669Z,8.65
2019-04-11T01:25:13.233Z,9.15
2019-04-11T01:30:20.735Z,11.40
2019-04-11T01:35:23.509Z,9.63
2019-04-11T01:45:27.724Z,9.23
2019-04-11T01:50:31.073Z,8.05
2019-04-11T01:55:32.986Z,8.53
2019-04-11T02:00:36.972Z,8.37
2019-04-11T02:05:39.124Z,8.78
2019-04-11T02:10:41.281Z,8.90
2019-04-11T02:15:44.202Z,9.63
2019-04-11T02:20:47.310Z,9.33
2019-04-11T02:31:00.117Z,8.95
2019-04-11T02:36:03.230Z,8.68
2019-04-11T02:41:08.595Z,8.60
2019-04-11T02:46:20.422Z,11.75
2019-04-11T02:51:14.680Z,13.68
2019-04-11T02:56:17.491Z,15.50
2019-04-11T03:01:21.984Z,10.90
2019-04-11T03:06:25.835Z,12.75
2019-04-11T03:11:28.074Z,14.87
2019-04-11T03:16:42.731Z,13.13
2019-04-11T03:21:39.123Z,14.63
2019-04-11T03:26:38.326Z,14.70
2019-04-11T03:32:17.042Z,13.33
2019-04-11T03:37:27.319Z,12.70
2019-04-11T03:42:04.133Z,24.75
2019-04-11T03:47:11.320Z,16.87
2019-04-11T03:51:56.613Z,9.30
2019-04-11T03:56:59.273Z,8.83
2019-04-11T04:02:01.367Z,15.68
2019-04-11T04:07:06.794Z,18.95
2019-04-11T04:12:09.534Z,19.50
2019-04-11T04:17:33.005Z,19.27
2019-04-11T04:22:48.079Z,11.93
2019-04-11T04:27:51.275Z,11.03
2019-04-11T04:32:54.614Z,11.97
2019-04-11T04:37:58.840Z,9.88
2019-04-11T04:43:05.058Z,12.13
2019-04-11T04:48:11.046Z,9.63
2019-04-11T04:53:09.302Z,9.43
2019-04-11T04:58:11.294Z,8.00
2019-04-11T05:03:13.617Z,8.97
2019-04-11T05:08:16.555Z,13.03
2019-04-11T05:13:19.464Z,11.65
2019-04-11T05:23:24.059Z,17.32
2019-04-11T05:28:26.274Z,15.33
2019-04-11T05:33:29.343Z,9.08
2019-04-11T05:38:32.802Z,13.75
2019-04-11T05:43:37.330Z,14.93
2019-04-11T05:48:41.143Z,10.88
2019-04-11T05:53:43.771Z,19.30
2019-04-11T05:58:47.367Z,11.93
2019-04-11T06:03:52.039Z,11.65
2019-04-11T06:09:00.362Z,12.10
2019-04-11T06:14:05.176Z,13.93
2019-04-11T06:19:16.469Z,15.48
2019-04-11T06:24:32.609Z,15.78
2019-04-11T06:29:47.971Z,15.03
2019-04-11T06:35:08.288Z,15.18
2019-04-11T06:40:24.894Z,13.08
2019-04-11T06:45:42.188Z,12.25
2019-04-11T06:51:01.843Z,10.95
2019-04-11T06:56:12.518Z,9.90
2019-04-11T07:01:16.490Z,10.03
2019-04-11T07:06:21.648Z,9.28
2019-04-11T07:11:25.611Z,8.43
2019-04-11T07:16:29.444Z,7.55
2019-04-11T07:21:33.332Z,5.72
2019-04-11T07:26:37.491Z,5.22
2019-04-11T07:31:48.327Z,4.47
2019-04-11T07:37:10.457Z,4.03
2019-04-11T07:42:34.172Z,5.30
2019-04-11T07:47:38.423Z,4.62
2019-04-11T07:52:42.593Z,4.35
2019-04-11T07:57:46.902Z,4.58
2019-04-11T08:02:59.800Z,4.53
2019-04-11T08:08:13.362Z,4.10
2019-04-11T08:13:28.950Z,5.17
2019-04-11T08:18:49.339Z,4.28
2019-04-11T08:23:54.171Z,4.42
2019-04-11T08:29:05.052Z,4.85
2019-04-11T08:34:00.606Z,4.17
2019-04-11T08:39:04.852Z,4.20
2019-04-11T08:44:07.783Z,3.95
2019-04-11T08:54:36.071Z,5.28
2019-04-11T08:59:49.379Z,5.83
2019-04-11T09:05:08.449Z,6.10
2019-04-11T09:10:10.039Z,4.65
2019-04-11T09:15:26.629Z,5.00
2019-04-11T09:20:40.152Z,5.15
2019-04-11T09:25:54.987Z,4.78
2019-04-11T09:31:03.593Z,4.35
2019-04-11T09:36:24.399Z,5.00
2019-04-11T09:41:45.029Z,5.72
2019-04-11T09:46:59.122Z,5.37
2019-04-11T09:52:02.986Z,5.90
2019-04-11T09:57:10.067Z,3.90
2019-04-11T10:02:23.348Z,5.60
2019-04-11T10:07:28.139Z,4.28
2019-04-11T10:12:48.811Z,3.98
2019-04-11T10:18:20.134Z,3.58
2019-04-11T10:23:18.830Z,4.30
2019-04-11T10:28:35.722Z,4.42
2019-04-11T10:33:55.463Z,4.08
2019-04-11T10:39:02.866Z,4.30
2019-04-11T10:44:07.644Z,3.77
2019-04-11T10:49:28.446Z,3.77
2019-04-11T10:54:32.513Z,3.25
2019-04-11T10:59:36.441Z,4.10
2019-04-11T11:04:41.012Z,4.78
2019-04-11T11:09:46.207Z,1.80
2019-04-11T11:14:56.163Z,5.80
2019-04-11T11:20:26.702Z,2.35
2019-04-11T11:25:26.834Z,4.30
2019-04-11T11:30:47.434Z,2.83
2019-04-11T11:35:52.081Z,2.40
2019-04-11T11:40:58.979Z,3.00
2019-04-11T11:46:03.146Z,2.72
2019-04-11T11:51:08.716Z,9.55
2019-04-11T11:56:12.135Z,1.27
2019-04-11T12:01:16.019Z,4.30
2019-04-11T12:06:22.255Z,1.85
2019-04-11T12:11:26.271Z,2.17
2019-04-11T12:16:30.346Z,2.52
2019-04-11T12:21:38.857Z,3.20
2019-04-11T12:26:43.221Z,2.87
2019-04-11T12:31:48.629Z,2.40
2019-04-11T12:36:52.960Z,1.80
2019-04-11T12:41:57.259Z,1.35
2019-04-11T12:47:01.536Z,1.37
2019-04-11T12:52:22.688Z,2.08
2019-04-11T12:57:43.435Z,1.90
2019-04-11T13:03:01.104Z,1.77
2019-04-11T13:08:14.422Z,2.30
2019-04-11T13:18:22.127Z,1.05
2019-04-11T13:23:28.599Z,1.02
2019-04-11T13:28:32.266Z,4.22
2019-04-11T13:33:34.328Z,1.22
2019-04-11T13:38:37.615Z,0.70
2019-04-11T13:43:41.674Z,6.17
2019-04-11T13:48:48.152Z,1.82
2019-04-11T13:54:09.149Z,0.90
2019-04-11T13:59:13.342Z,2.00
2019-04-11T14:04:22.964Z,0.50
2019-04-11T14:09:30.566Z,2.75
2019-04-11T14:14:32.913Z,1.10
2019-04-11T14:19:54.823Z,1.45
2019-04-11T14:25:15.537Z,0.70
2019-04-11T14:30:36.235Z,1.10
2019-04-11T14:35:40.111Z,1.70
2019-04-11T14:41:00.976Z,8.55
2019-04-11T14:45:55.971Z,1.72
2019-04-11T14:51:02.953Z,1.60
2019-04-11T14:56:14.105Z,3.47
2019-04-11T15:01:17.077Z,1.20
2019-04-11T15:06:21.011Z,3.50
2019-04-11T15:11:25.003Z,3.12
2019-04-11T15:16:33.037Z,1.90
2019-04-11T15:21:49.364Z,2.83
2019-04-11T15:26:56.689Z,3.02
2019-04-11T15:32:02.186Z,1.70
2019-04-11T15:37:21.665Z,2.30
2019-04-11T15:42:25.610Z,4.20
2019-04-11T15:47:29.661Z,6.28
2019-04-11T15:52:32.111Z,3.42
2019-04-11T15:57:36.221Z,3.77
2019-04-11T16:02:52.746Z,23.67
2019-04-11T16:08:01.692Z,6.05
2019-04-11T16:13:09.015Z,14.45
2019-04-11T16:18:29.955Z,6.75
2019-04-11T16:23:34.033Z,20.02
2019-04-11T16:28:43.945Z,16.23
2019-04-11T16:33:49.168Z,13.15
2019-04-11T16:39:08.207Z,7.50
2019-04-11T16:44:12.597Z,5.80
2019-04-11T16:49:16.307Z,3.52
2019-04-11T16:54:18.919Z,5.97
2019-04-11T16:59:22.846Z,21.80
2019-04-11T17:04:26.004Z,24.05
2019-04-11T17:09:33.551Z,23.85
2019-04-11T17:14:35.778Z,9.48
2019-04-11T17:19:38.025Z,45.73
2019-04-11T17:24:40.654Z,53.90
2019-04-11T17:29:43.596Z,68.25
2019-04-11T17:34:46.296Z,20.95
2019-04-11T17:39:48.527Z,31.85
2019-04-11T17:44:50.825Z,20.77
2019-04-11T17:49:53.110Z,18.30
2019-04-11T17:54:55.480Z,7.55
2019-04-11T17:59:59.104Z,6.97
2019-04-11T18:05:02.452Z,9.70
2019-04-11T18:10:06.000Z,15.93
2019-04-11T18:15:09.685Z,14.85
2019-04-11T18:20:13.967Z,6.72
2019-04-11T18:25:16.327Z,8.98
2019-04-11T18:30:20.900Z,4.78
2019-04-11T18:35:23.078Z,15.20
2019-04-11T18:40:25.364Z,8.27
2019-04-11T18:45:27.667Z,4.12
2019-04-11T18:50:30.176Z,7.20
2019-04-11T18:55:32.669Z,6.72
2019-04-11T19:00:35.805Z,2.55
2019-04-11T19:05:42.782Z,4.58
2019-04-11T19:10:45.804Z,34.35
2019-04-11T19:15:47.627Z,23.02
2019-04-11T19:20:50.801Z,11.83
2019-04-11T19:25:53.359Z,9.98
2019-04-11T19:30:56.770Z,6.80
2019-04-11T19:35:59.224Z,6.55
2019-04-11T19:41:02.798Z,5.85
2019-04-11T19:46:05.249Z,5.85
2019-04-11T19:51:07.434Z,12.73
2019-04-11T19:56:14.266Z,2.77
2019-04-11T20:01:16.589Z,16.07
2019-04-11T20:06:19.095Z,40.95
2019-04-11T20:11:21.524Z,2.05
2019-04-11T20:16:24.099Z,2.62
2019-04-11T20:21:26.214Z,1.98
2019-04-11T20:26:28.510Z,5.67
2019-04-11T20:31:30.675Z,3.00
2019-04-11T20:36:33.840Z,9.28
2019-04-11T20:41:36.150Z,5.10
2019-04-11T20:46:38.434Z,2.50
2019-04-11T20:51:40.844Z,4.10
2019-04-11T20:56:43.075Z,4.58
2019-04-11T21:01:45.605Z,6.60
2019-04-11T21:06:48.067Z,4.42
2019-04-11T21:11:50.336Z,2.65
2019-04-11T21:16:52.629Z,3.30
2019-04-11T21:21:55.008Z,3.45
2019-04-11T21:26:59.186Z,3.67
2019-04-11T21:32:01.673Z,3.40
2019-04-11T21:42:06.652Z,3.72
2019-04-11T21:47:08.959Z,3.40
2019-04-11T21:52:12.312Z,3.30
2019-04-11T21:57:15.036Z,3.22
2019-04-11T22:02:17.548Z,3.23
2019-04-11T22:07:19.849Z,2.62
2019-04-11T22:12:21.801Z,2.80
2019-04-11T22:17:24.040Z,2.40
2019-04-11T22:22:26.062Z,2.62
2019-04-11T22:27:28.100Z,3.27
2019-04-11T22:32:31.297Z,2.80
2019-04-11T22:37:33.294Z,3.02
2019-04-11T22:42:35.366Z,2.50
2019-04-11T22:47:38.379Z,3.20
2019-04-11T22:52:42.313Z,2.77
2019-04-11T22:57:44.869Z,3.60
2019-04-11T23:02:48.979Z,3.67
2019-04-11T23:07:51.024Z,3.27
2019-04-11T23:12:53.283Z,2.95
2019-04-11T23:17:55.297Z,2.87
2019-04-11T23:22:57.387Z,3.00
2019-04-11T23:27:59.471Z,2.87
2019-04-11T23:33:01.781Z,2.85
2019-04-11T23:38:03.963Z,9.53
2019-04-11T23:43:07.152Z,3.92
2019-04-11T23:48:10.510Z,3.03
2019-04-11T23:53:12.562Z,6.35
2019-04-11T23:58:14.615Z,6.70
